Time;durP1;ratioP1;P1;durP2;ratioP2;P2;SDS_P1;SDS_P2;PMS_P1;PMS_P2;Temp;Humidity;BMP_temperature;BMP_pressure;BME280_temperature;BME280_humidity;BME280_pressure;Samples;Min_cycle;Max_cycle;Signal;HPM_P1;HPM_P2
2024/03/14 00:00:05;;;;;;;22.05;14.38;;;10.10;99.90;;;;;;5076330;28;20036;-49
2024/03/14 00:02:37;;;;;;;21.40;14.27;;;10.10;99.90;;;;;;5071609;28;20599;-47
2024/03/14 00:05:04;;;;;;;22.65;14.40;;;10.10;99.90;;;;;;5076352;28;20504;-50
2024/03/14 00:07:31;;;;;;;20.48;14.80;;;10.10;99.90;;;;;;5074474;28;20047;-49
2024/03/14 00:09:58;;;;;;;22.58;14.43;;;10.10;99.90;;;;;;5073736;28;20048;-49
2024/03/14 00:12:25;;;;;;;22.23;14.77;;;10.10;99.90;;;;;;5078771;28;20071;-50
2024/03/14 00:14:52;;;;;;;22.17;14.75;;;10.10;99.90;;;;;;5072960;28;20064;-48
2024/03/14 00:17:19;;;;;;;23.00;15.18;;;10.10;99.90;;;;;;5074124;28;20494;-51
2024/03/14 00:19:51;;;;;;;20.80;13.70;;;10.10;99.90;;;;;;5072016;28;20275;-47
2024/03/14 00:22:18;;;;;;;23.00;14.45;;;10.10;99.90;;;;;;5076762;28;20059;-47
2024/03/14 00:24:45;;;;;;;21.63;14.07;;;10.10;99.90;;;;;;5075025;28;20076;-48
2024/03/14 00:27:13;;;;;;;21.08;13.95;;;10.10;99.90;;;;;;5071894;28;20040;-49
2024/03/14 00:29:41;;;;;;;23.67;15.73;;;10.10;99.90;;;;;;5076914;28;20041;-46
2024/03/14 00:32:09;;;;;;;24.65;15.27;;;10.10;99.90;;;;;;5059656;28;20075;-50
2024/03/14 00:34:36;;;;;;;23.60;15.82;;;10.00;99.90;;;;;;5077677;28;20120;-46
2024/03/14 00:37:03;;;;;;;23.10;15.60;;;10.00;99.90;;;;;;5073323;28;20044;-47
2024/03/14 00:39:31;;;;;;;23.58;14.50;;;10.00;99.90;;;;;;5072779;28;20134;-45
2024/03/14 00:41:59;;;;;;;21.77;14.35;;;10.00;99.90;;;;;;5066229;28;20037;-51
2024/03/14 00:44:26;;;;;;;25.40;16.10;;;10.00;99.90;;;;;;5062287;28;20041;-43
2024/03/14 00:46:53;;;;;;;28.10;14.95;;;9.90;99.90;;;;;;5066252;28;20050;-48
2024/03/14 00:49:21;;;;;;;24.63;14.73;;;9.90;99.90;;;;;;5061584;28;20102;-43
2024/03/14 00:51:48;;;;;;;27.17;16.27;;;9.90;99.90;;;;;;5067649;28;20113;-46
2024/03/14 00:54:15;;;;;;;25.58;15.80;;;9.90;99.90;;;;;;5069105;28;20401;-47
2024/03/14 00:56:43;;;;;;;21.05;14.27;;;9.80;99.90;;;;;;5066203;28;20523;-46
2024/03/14 00:59:12;;;;;;;23.17;14.43;;;9.80;99.90;;;;;;5066332;28;20478;-47
2024/03/14 01:01:45;;;;;;;27.15;15.68;;;9.70;99.90;;;;;;5068914;28;20343;-50
2024/03/14 01:04:13;;;;;;;26.25;16.20;;;9.70;99.90;;;;;;5065232;28;20095;-47
2024/03/14 01:06:40;;;;;;;27.20;16.90;;;9.70;99.90;;;;;;5065487;28;20084;-44
2024/03/14 01:09:10;;;;;;;26.95;15.68;;;9.70;99.90;;;;;;5070885;28;20047;-46
2024/03/14 01:11:39;;;;;;;24.80;15.38;;;9.70;99.90;;;;;;5067194;28;20449;-46
2024/03/14 01:14:11;;;;;;;25.42;15.40;;;9.70;99.90;;;;;;5067702;28;20577;-45
2024/03/14 01:16:39;;;;;;;25.98;16.02;;;9.60;99.90;;;;;;5070639;28;20078;-46
2024/03/14 01:19:11;;;;;;;24.05;14.70;;;9.70;99.90;;;;;;5070086;28;20547;-48
2024/03/14 01:21:41;;;;;;;27.42;16.67;;;9.70;99.90;;;;;;5079743;28;20041;-44
2024/03/14 01:24:08;;;;;;;25.35;16.08;;;9.70;99.90;;;;;;5069457;28;20041;-44
2024/03/14 01:26:36;;;;;;;26.73;15.68;;;9.70;99.90;;;;;;5069038;28;20571;-47
2024/03/14 01:29:04;;;;;;;28.65;16.58;;;9.70;99.90;;;;;;5068137;28;20421;-44
2024/03/14 01:31:32;;;;;;;28.33;16.92;;;9.70;99.90;;;;;;5068595;28;20520;-47
2024/03/14 01:34:00;;;;;;;26.65;16.95;;;9.70;99.90;;;;;;5068996;28;20044;-45
2024/03/14 01:36:27;;;;;;;26.45;16.30;;;9.70;99.90;;;;;;5068954;28;20040;-48
2024/03/14 01:38:54;;;;;;;25.65;16.15;;;9.70;99.90;;;;;;5068476;28;20049;-45
2024/03/14 01:41:21;;;;;;;27.15;16.58;;;9.70;99.90;;;;;;5066656;28;20040;-49
2024/03/14 01:44:00;;;;;;;25.17;15.48;;;9.70;99.90;;;;;;5066527;28;20043;-46
2024/03/14 01:46:29;;;;;;;26.88;16.33;;;9.70;99.90;;;;;;5063079;28;20444;-46
2024/03/14 01:48:58;;;;;;;27.92;16.20;;;9.60;99.90;;;;;;5066954;28;20041;-48
2024/03/14 01:51:26;;;;;;;26.40;16.23;;;9.60;99.90;;;;;;5067350;28;20075;-46
2024/03/14 01:53:55;;;;;;;24.08;14.65;;;9.60;99.90;;;;;;5066690;28;20063;-44
2024/03/14 01:56:22;;;;;;;24.52;15.45;;;9.70;99.90;;;;;;5066808;28;20080;-47
2024/03/14 01:58:51;;;;;;;26.23;16.13;;;9.60;99.90;;;;;;5067014;28;20040;-44
2024/03/14 02:01:20;;;;;;;24.17;15.40;;;9.60;99.90;;;;;;5067390;28;20029;-46
2024/03/14 02:03:56;;;;;;;22.50;14.57;;;9.60;99.90;;;;;;5067298;28;20456;-44
2024/03/14 02:07:14;;;;;;;24.00;14.73;;;9.70;99.90;;;;;;5068290;28;20466;-49
2024/03/14 02:09:43;;;;;;;27.33;14.65;;;9.70;99.90;;;;;;5065680;28;20493;-47
2024/03/14 02:12:10;;;;;;;23.52;14.95;;;9.60;99.90;;;;;;5066563;28;20045;-50
2024/03/14 02:14:37;;;;;;;27.15;15.98;;;9.60;99.90;;;;;;5066279;28;20039;-41
2024/03/14 02:17:04;;;;;;;25.90;15.77;;;9.60;99.90;;;;;;5062248;28;20095;-49
2024/03/14 02:19:32;;;;;;;23.20;15.15;;;9.60;99.90;;;;;;5066779;28;20511;-42
2024/03/14 02:22:00;;;;;;;28.73;16.60;;;9.60;99.90;;;;;;5065096;28;20588;-46
2024/03/14 02:24:28;;;;;;;24.80;14.45;;;9.60;99.90;;;;;;5066963;28;20671;-45
2024/03/14 02:26:55;;;;;;;23.77;15.48;;;9.60;99.90;;;;;;5068509;28;20071;-46
2024/03/14 02:29:23;;;;;;;28.17;16.67;;;9.60;99.90;;;;;;5066749;28;20104;-49
2024/03/14 02:31:51;;;;;;;26.38;17.08;;;9.60;99.90;;;;;;5068437;28;20072;-49
2024/03/14 02:34:19;;;;;;;26.27;15.48;;;9.60;99.90;;;;;;5068629;28;20560;-48
2024/03/14 02:36:46;;;;;;;25.05;16.08;;;9.60;99.90;;;;;;5068255;28;20442;-46
2024/03/14 02:39:16;;;;;;;26.27;16.27;;;9.50;99.90;;;;;;5059783;28;20036;-47
2024/03/14 02:41:44;;;;;;;27.50;17.52;;;9.50;99.90;;;;;;5066314;28;20521;-46
2024/03/14 02:44:15;;;;;;;24.92;16.00;;;9.50;99.90;;;;;;5060812;28;20133;-48
2024/03/14 02:46:43;;;;;;;28.88;15.93;;;9.50;99.90;;;;;;5063460;28;20649;-46
2024/03/14 02:49:13;;;;;;;31.60;16.10;;;9.50;99.90;;;;;;5062838;28;20043;-43
2024/03/14 02:51:45;;;;;;;26.45;15.18;;;9.50;99.90;;;;;;5060925;28;20032;-44
2024/03/14 02:54:15;;;;;;;23.58;14.70;;;9.40;99.90;;;;;;5066172;28;20147;-46
2024/03/14 02:56:47;;;;;;;31.45;16.98;;;9.40;99.90;;;;;;5064915;28;20041;-47
2024/03/14 02:59:19;;;;;;;28.83;17.90;;;9.40;99.90;;;;;;5058220;28;20045;-46
2024/03/14 03:01:47;;;;;;;29.63;17.27;;;9.40;99.90;;;;;;5066689;28;20036;-46
2024/03/14 03:04:14;;;;;;;25.58;16.02;;;9.30;99.90;;;;;;5065855;28;20048;-48
2024/03/14 03:06:52;;;;;;;25.33;15.13;;;9.30;99.90;;;;;;5059278;28;20045;-49
2024/03/14 03:09:23;;;;;;;24.90;15.32;;;9.30;99.90;;;;;;5062377;28;20037;-48
2024/03/14 03:11:50;;;;;;;26.38;15.45;;;9.30;99.90;;;;;;5066320;28;20481;-46
2024/03/14 03:14:17;;;;;;;26.10;15.18;;;9.20;99.90;;;;;;5064185;28;20283;-48
2024/03/14 03:16:44;;;;;;;27.85;15.02;;;9.10;99.90;;;;;;5059171;28;20058;-47
2024/03/14 03:19:13;;;;;;;27.35;16.60;;;9.10;99.90;;;;;;5066180;28;20064;-50
2024/03/14 03:21:40;;;;;;;29.67;15.90;;;9.10;99.90;;;;;;5065802;28;20048;-47
2024/03/14 03:24:07;;;;;;;26.67;15.57;;;9.00;99.90;;;;;;5064235;28;20068;-44
2024/03/14 03:26:35;;;;;;;23.85;15.23;;;9.00;99.90;;;;;;5066923;28;20044;-49
2024/03/14 03:29:02;;;;;;;26.75;15.15;;;8.90;99.90;;;;;;5066656;28;20476;-44
2024/03/14 03:31:29;;;;;;;25.77;15.65;;;8.90;99.90;;;;;;5063722;28;20055;-45
2024/03/14 03:33:56;;;;;;;26.30;15.10;;;8.90;99.90;;;;;;5065685;28;20071;-49
2024/03/14 03:36:24;;;;;;;27.05;14.20;;;8.90;99.90;;;;;;5068407;28;20062;-47
2024/03/14 03:38:51;;;;;;;25.10;14.70;;;8.90;99.90;;;;;;5057935;28;20063;-46
2024/03/14 03:41:23;;;;;;;24.27;14.68;;;8.90;99.90;;;;;;5068888;28;20033;-48
2024/03/14 03:43:50;;;;;;;26.63;15.82;;;9.00;99.90;;;;;;5067881;28;20083;-52
2024/03/14 03:46:17;;;;;;;23.80;14.05;;;9.00;99.90;;;;;;5063692;28;20028;-46
2024/03/14 03:48:44;;;;;;;24.63;15.27;;;9.00;99.90;;;;;;5057610;28;20119;-48
2024/03/14 03:51:17;;;;;;;21.10;13.65;;;9.00;99.90;;;;;;5060852;28;20055;-45
2024/03/14 03:53:45;;;;;;;27.67;16.08;;;9.00;99.90;;;;;;5061908;28;20079;-48
2024/03/14 03:56:13;;;;;;;25.63;15.02;;;9.10;99.90;;;;;;5063480;28;20128;-49
2024/03/14 03:58:42;;;;;;;25.02;15.73;;;9.10;99.90;;;;;;5064299;28;20067;-46
2024/03/14 04:01:13;;;;;;;24.98;15.35;;;9.10;99.90;;;;;;5060973;28;20531;-44
2024/03/14 04:03:40;;;;;;;22.70;14.00;;;9.20;99.90;;;;;;5067606;28;20394;-46
2024/03/14 04:06:13;;;;;;;23.92;14.85;;;9.20;99.90;;;;;;5069373;28;20146;-47
2024/03/14 04:08:39;;;;;;;29.35;15.07;;;9.20;99.90;;;;;;5065300;28;20435;-47
2024/03/14 04:11:10;;;;;;;24.27;14.50;;;9.20;99.90;;;;;;5071163;28;20195;-48
2024/03/14 04:13:37;;;;;;;25.10;14.85;;;9.30;99.90;;;;;;5069828;28;20048;-44
2024/03/14 04:16:04;;;;;;;24.38;14.35;;;9.30;99.90;;;;;;5068046;28;20055;-46
2024/03/14 04:18:31;;;;;;;25.00;14.95;;;9.30;99.90;;;;;;5066106;28;20497;-42
2024/03/14 04:20:58;;;;;;;25.13;15.07;;;9.30;99.90;;;;;;5067804;28;20048;-45
2024/03/14 04:23:25;;;;;;;23.02;13.73;;;9.30;99.90;;;;;;5064493;28;20047;-48
2024/03/14 04:25:56;;;;;;;27.98;16.38;;;9.40;99.90;;;;;;5067544;28;20071;-48
2024/03/14 04:28:23;;;;;;;23.90;14.73;;;9.40;99.90;;;;;;5069103;28;20046;-47
2024/03/14 04:30:53;;;;;;;22.17;14.55;;;9.40;99.90;;;;;;5069974;28;20420;-49
2024/03/14 04:33:21;;;;;;;22.48;13.80;;;9.40;99.90;;;;;;5056190;28;20102;-48
2024/03/14 04:35:48;;;;;;;22.63;14.68;;;9.40;99.90;;;;;;5069692;28;20056;-47
2024/03/14 04:38:15;;;;;;;24.15;14.93;;;9.50;99.90;;;;;;5064107;28;20432;-46
2024/03/14 04:40:43;;;;;;;23.30;14.10;;;9.50;99.90;;;;;;5067328;28;20114;-48
2024/03/14 04:43:10;;;;;;;22.77;13.50;;;9.50;99.90;;;;;;5067335;28;20589;-45
2024/03/14 04:45:37;;;;;;;26.30;15.27;;;9.50;99.90;;;;;;5070119;28;20117;-49
2024/03/14 04:48:04;;;;;;;26.15;15.07;;;9.50;99.90;;;;;;5068466;28;20128;-43
2024/03/14 04:50:34;;;;;;;27.92;15.55;;;9.60;99.90;;;;;;5069776;28;20048;-45
2024/03/14 04:53:01;;;;;;;24.48;15.13;;;9.50;99.90;;;;;;5065180;28;20475;-45
2024/03/14 04:55:29;;;;;;;22.48;14.55;;;9.50;99.90;;;;;;5069715;28;20193;-43
2024/03/14 04:57:55;;;;;;;22.77;14.20;;;9.50;99.90;;;;;;5065885;28;20132;-46
2024/03/14 05:00:25;;;;;;;22.20;14.05;;;9.60;99.90;;;;;;5063155;28;20051;-46
2024/03/14 05:02:55;;;;;;;24.00;14.48;;;9.60;99.90;;;;;;5067224;28;20049;-50
2024/03/14 05:05:22;;;;;;;21.67;13.25;;;9.60;99.90;;;;;;5068790;28;20677;-46
2024/03/14 05:07:50;;;;;;;24.35;15.20;;;9.60;99.90;;;;;;5060993;28;20140;-51
2024/03/14 05:10:18;;;;;;;22.80;14.60;;;9.60;99.90;;;;;;5066117;28;20490;-48
2024/03/14 05:12:47;;;;;;;22.42;13.70;;;9.60;99.90;;;;;;5064431;28;20052;-48
2024/03/14 05:15:15;;;;;;;22.58;14.25;;;9.60;99.90;;;;;;5066501;28;20047;-46
2024/03/14 05:17:44;;;;;;;22.20;13.98;;;9.50;99.90;;;;;;5069400;28;20095;-45
2024/03/14 05:20:13;;;;;;;21.83;13.65;;;9.50;99.90;;;;;;5069087;28;20048;-53
2024/03/14 05:22:41;;;;;;;22.60;14.23;;;9.50;99.90;;;;;;5063836;28;20466;-49
2024/03/14 05:25:11;;;;;;;21.27;13.40;;;9.50;99.90;;;;;;5067710;28;20308;-47
2024/03/14 05:27:39;;;;;;;25.25;15.50;;;9.50;99.90;;;;;;5067405;28;20052;-48
2024/03/14 05:30:07;;;;;;;21.50;13.25;;;9.50;99.90;;;;;;5063230;28;20159;-45
2024/03/14 05:32:34;;;;;;;23.13;14.15;;;9.50;99.90;;;;;;5068518;28;20040;-45
2024/03/14 05:35:03;;;;;;;19.58;12.82;;;9.50;99.90;;;;;;5069044;28;20090;-44
2024/03/14 05:37:30;;;;;;;21.13;13.65;;;9.50;99.90;;;;;;5059757;28;20425;-49
2024/03/14 05:39:57;;;;;;;22.38;13.82;;;9.50;99.90;;;;;;5068642;28;20139;-46
2024/03/14 05:42:24;;;;;;;23.50;14.68;;;9.50;99.90;;;;;;5063458;28;20041;-47
2024/03/14 05:44:55;;;;;;;20.70;13.65;;;9.50;99.90;;;;;;5055895;28;20037;-48
2024/03/14 05:47:26;;;;;;;23.52;15.02;;;9.50;99.90;;;;;;5060099;28;20041;-44
2024/03/14 05:49:54;;;;;;;23.80;14.40;;;9.50;99.90;;;;;;5065322;28;20048;-50
2024/03/14 05:52:21;;;;;;;23.85;14.60;;;9.60;99.90;;;;;;5061820;28;20068;-48
2024/03/14 05:54:50;;;;;;;23.55;14.40;;;9.60;99.90;;;;;;5065616;28;20249;-50
2024/03/14 05:57:17;;;;;;;21.85;13.98;;;9.60;99.90;;;;;;5061698;28;20119;-47
2024/03/14 05:59:44;;;;;;;20.52;13.65;;;9.60;99.90;;;;;;5068331;28;20090;-44
2024/03/14 06:02:12;;;;;;;23.88;15.32;;;9.60;99.90;;;;;;5066504;28;20049;-48
2024/03/14 06:04:39;;;;;;;20.90;13.80;;;9.60;99.90;;;;;;5068241;28;20090;-48
2024/03/14 06:07:06;;;;;;;22.48;15.02;;;9.70;99.90;;;;;;5060493;28;20513;-43
2024/03/14 06:09:41;;;;;;;21.50;14.10;;;9.70;99.90;;;;;;5065139;28;20048;-51
2024/03/14 06:12:09;;;;;;;20.58;14.07;;;9.70;99.90;;;;;;5066697;28;20505;-46
2024/03/14 06:14:39;;;;;;;23.73;14.23;;;9.70;99.90;;;;;;5069088;28;20119;-48
2024/03/14 06:17:06;;;;;;;22.05;13.75;;;9.70;99.90;;;;;;5066334;28;20063;-44
2024/03/14 06:19:33;;;;;;;20.13;12.55;;;9.70;99.90;;;;;;5068327;28;20509;-43
2024/03/14 06:22:00;;;;;;;19.85;13.30;;;9.80;99.90;;;;;;5066773;28;20045;-45
2024/03/14 06:24:28;;;;;;;21.15;14.07;;;9.80;99.90;;;;;;5068396;28;20052;-46
2024/03/14 06:26:55;;;;;;;18.83;13.18;;;9.90;99.90;;;;;;5062397;28;20409;-49
2024/03/14 06:29:22;;;;;;;18.48;12.18;;;9.90;99.90;;;;;;5062934;28;20565;-47
2024/03/14 06:31:50;;;;;;;23.08;14.80;;;9.90;99.90;;;;;;5067140;28;20057;-50
2024/03/14 06:34:17;;;;;;;22.38;14.38;;;10.00;99.90;;;;;;5062169;28;20062;-46
2024/03/14 06:36:44;;;;;;;22.42;14.48;;;10.10;99.90;;;;;;5067486;28;20049;-48
2024/03/14 06:39:12;;;;;;;21.92;14.55;;;10.10;99.90;;;;;;5067519;28;20125;-50
2024/03/14 06:41:39;;;;;;;22.42;14.73;;;10.10;99.90;;;;;;5066776;28;20040;-48
2024/03/14 06:44:06;;;;;;;24.60;14.65;;;10.20;99.90;;;;;;5067615;28;20044;-46
2024/03/14 06:46:34;;;;;;;22.05;14.23;;;10.30;99.90;;;;;;5066999;28;20048;-49
2024/03/14 06:49:04;;;;;;;21.33;13.75;;;10.30;99.90;;;;;;5067258;28;20139;-47
2024/03/14 06:51:31;;;;;;;22.35;14.30;;;10.40;99.90;;;;;;5067665;28;20493;-45
2024/03/14 06:53:58;;;;;;;20.38;13.32;;;10.40;99.90;;;;;;5067279;28;20056;-49
2024/03/14 06:56:30;;;;;;;20.80;13.88;;;10.50;99.90;;;;;;5068062;28;20048;-45
2024/03/14 06:58:57;;;;;;;22.92;14.50;;;10.60;99.90;;;;;;5066227;28;20075;-46
2024/03/14 07:01:24;;;;;;;22.65;15.07;;;10.70;99.90;;;;;;5068392;28;20568;-48
2024/03/14 07:03:51;;;;;;;24.48;16.42;;;10.80;99.90;;;;;;5066886;28;20131;-46
2024/03/14 07:06:23;;;;;;;23.63;14.98;;;10.90;99.90;;;;;;5067122;28;20393;-48
2024/03/14 07:08:56;;;;;;;20.42;13.80;;;10.90;99.90;;;;;;5067501;28;20512;-44
2024/03/14 07:11:25;;;;;;;30.25;17.52;;;10.90;99.90;;;;;;5062623;28;20198;-49
2024/03/14 07:13:56;;;;;;;24.13;15.43;;;11.00;99.90;;;;;;5067383;28;20036;-44
2024/03/14 07:16:23;;;;;;;20.23;14.88;;;11.10;99.90;;;;;;5061981;28;20182;-50
2024/03/14 07:18:53;;;;;;;20.67;13.88;;;11.10;99.90;;;;;;5067031;28;20440;-49
2024/03/14 07:21:22;;;;;;;21.27;14.20;;;11.10;99.90;;;;;;5064428;28;20147;-45
2024/03/14 07:23:50;;;;;;;22.45;14.07;;;11.20;99.90;;;;;;5065514;28;20540;-48
2024/03/14 07:26:24;;;;;;;21.27;14.95;;;11.20;99.90;;;;;;5062103;28;20045;-47
2024/03/14 07:28:57;;;;;;;21.33;14.05;;;11.20;99.90;;;;;;5067620;28;20060;-49
2024/03/14 07:31:28;;;;;;;20.90;13.52;;;11.30;99.90;;;;;;5064734;28;20127;-47
2024/03/14 07:33:56;;;;;;;20.70;13.73;;;11.30;99.90;;;;;;5063966;28;20556;-48
2024/03/14 07:36:26;;;;;;;22.25;15.20;;;11.40;99.90;;;;;;5064070;28;20082;-51
2024/03/14 07:38:53;;;;;;;23.10;13.43;;;11.50;99.90;;;;;;5063489;28;20036;-47
2024/03/14 07:41:20;;;;;;;26.17;16.73;;;11.60;99.90;;;;;;5070154;28;20044;-48
2024/03/14 07:43:53;;;;;;;22.02;15.32;;;11.70;99.90;;;;;;5073281;28;20241;-41
2024/03/14 07:46:40;;;;;;;21.75;13.35;;;11.70;99.90;;;;;;5068270;28;20119;-46
2024/03/14 07:49:07;;;;;;;18.48;13.32;;;11.80;99.90;;;;;;5071053;28;20040;-49
2024/03/14 07:51:34;;;;;;;19.65;13.20;;;12.00;99.90;;;;;;5070758;28;20600;-48
2024/03/14 07:54:01;;;;;;;20.30;12.98;;;12.00;99.90;;;;;;5071189;28;20651;-47
2024/03/14 07:56:29;;;;;;;19.55;13.50;;;12.10;99.90;;;;;;5068430;28;20155;-50
2024/03/14 07:58:56;;;;;;;20.70;13.27;;;12.20;99.90;;;;;;5071499;28;20048;-46
2024/03/14 08:01:27;;;;;;;18.73;13.25;;;12.20;99.90;;;;;;5071475;28;20040;-46
2024/03/14 08:03:57;;;;;;;19.42;13.65;;;12.20;99.90;;;;;;5070113;28;20037;-47
2024/03/14 08:06:25;;;;;;;20.65;13.88;;;12.20;99.90;;;;;;5068749;28;20277;-49
2024/03/14 08:08:52;;;;;;;19.58;14.05;;;12.20;99.90;;;;;;5069903;28;20040;-48
2024/03/14 08:11:21;;;;;;;22.00;14.27;;;12.30;99.90;;;;;;5068885;28;20109;-48
2024/03/14 08:13:51;;;;;;;17.92;12.68;;;12.40;99.90;;;;;;5070950;28;20071;-47
2024/03/14 08:16:19;;;;;;;20.77;12.88;;;12.50;99.90;;;;;;5069392;28;20118;-48
2024/03/14 08:18:46;;;;;;;17.63;12.68;;;12.50;99.90;;;;;;5066711;28;20052;-53
2024/03/14 08:21:14;;;;;;;22.13;13.55;;;12.60;99.90;;;;;;5069605;28;20068;-46
2024/03/14 08:23:42;;;;;;;21.73;13.50;;;12.80;99.90;;;;;;5066203;28;20052;-52
2024/03/14 08:26:10;;;;;;;23.35;15.27;;;12.90;99.90;;;;;;5071351;28;21605;-45
2024/03/14 08:28:38;;;;;;;25.27;13.88;;;13.00;99.90;;;;;;5071572;28;20037;-48
2024/03/14 08:31:08;;;;;;;22.05;13.20;;;13.00;99.90;;;;;;5072978;28;20040;-48
2024/03/14 08:33:35;;;;;;;19.48;14.13;;;13.10;99.90;;;;;;5072551;28;20036;-46
2024/03/14 08:36:04;;;;;;;19.63;12.95;;;13.30;99.90;;;;;;5071806;28;20051;-48
2024/03/14 08:38:33;;;;;;;19.25;13.63;;;13.40;99.90;;;;;;5072436;28;20094;-47
2024/03/14 08:41:02;;;;;;;18.90;13.73;;;13.60;99.90;;;;;;5072313;28;20040;-48
2024/03/14 08:43:33;;;;;;;20.17;12.80;;;13.70;99.90;;;;;;5071973;28;20040;-47
2024/03/14 08:46:01;;;;;;;18.98;13.60;;;13.90;99.90;;;;;;5070880;28;20094;-45
2024/03/14 08:48:28;;;;;;;23.05;15.35;;;13.90;99.90;;;;;;5070585;28;20073;-47
2024/03/14 08:50:55;;;;;;;20.83;13.77;;;14.00;99.90;;;;;;5071201;28;20041;-46
2024/03/14 08:53:22;;;;;;;19.92;13.27;;;14.10;99.90;;;;;;5071278;28;20469;-44
2024/03/14 08:55:54;;;;;;;20.05;13.40;;;14.30;99.90;;;;;;5071015;28;20045;-52
2024/03/14 08:58:25;;;;;;;20.42;13.20;;;14.50;99.90;;;;;;5065824;28;20454;-51
2024/03/14 09:00:53;;;;;;;15.53;12.23;;;14.50;99.90;;;;;;5071003;28;20426;-44
2024/03/14 09:03:20;;;;;;;18.85;13.32;;;14.50;99.90;;;;;;5073066;28;20291;-48
2024/03/14 09:05:48;;;;;;;17.20;12.13;;;14.60;99.90;;;;;;5070113;28;20269;-45
2024/03/14 09:08:18;;;;;;;17.67;12.63;;;14.70;99.90;;;;;;5067653;28;20044;-44
2024/03/14 09:10:45;;;;;;;19.65;14.27;;;14.80;99.90;;;;;;5071465;28;20029;-46
2024/03/14 09:13:14;;;;;;;20.42;14.15;;;14.90;99.90;;;;;;5070610;28;20049;-49
2024/03/14 09:15:41;;;;;;;21.63;13.52;;;15.00;99.90;;;;;;5065516;28;20150;-49
2024/03/14 09:18:09;;;;;;;18.33;12.63;;;15.10;99.90;;;;;;5068350;28;20096;-46
2024/03/14 09:20:38;;;;;;;18.02;12.63;;;15.30;99.90;;;;;;5070342;28;20052;-47
2024/03/14 09:23:04;;;;;;;18.20;12.75;;;15.60;99.90;;;;;;5069212;28;20506;-48
2024/03/14 09:25:31;;;;;;;17.63;11.98;;;15.70;99.90;;;;;;5068935;28;20036;-45
2024/03/14 09:27:59;;;;;;;19.10;13.63;;;15.70;99.90;;;;;;5063737;28;20056;-45
2024/03/14 09:30:26;;;;;;;16.75;11.18;;;15.70;99.90;;;;;;5070490;28;20048;-48
2024/03/14 09:32:54;;;;;;;17.55;12.60;;;15.80;99.90;;;;;;5062280;28;20145;-50
2024/03/14 09:35:25;;;;;;;18.60;13.25;;;15.80;99.90;;;;;;5068734;28;20071;-51
2024/03/14 09:37:55;;;;;;;20.33;13.65;;;15.80;99.90;;;;;;5066598;28;20045;-53
2024/03/14 09:40:23;;;;;;;18.70;11.95;;;15.90;99.90;;;;;;5070103;28;20056;-46
2024/03/14 09:42:59;;;;;;;18.48;12.73;;;15.80;99.90;;;;;;5069172;28;20056;-49
2024/03/14 09:45:29;;;;;;;18.50;12.93;;;15.90;99.90;;;;;;5067708;28;20052;-48
2024/03/14 09:47:57;;;;;;;21.48;15.20;;;16.10;99.90;;;;;;5067016;28;20040;-47
2024/03/14 09:50:26;;;;;;;20.60;12.82;;;16.40;99.90;;;;;;5068678;28;20042;-51
2024/03/14 09:52:54;;;;;;;18.38;13.32;;;16.70;99.90;;;;;;5068086;28;20455;-52
2024/03/14 09:55:23;;;;;;;21.33;13.30;;;16.90;99.90;;;;;;5067265;28;20508;-50
2024/03/14 09:57:55;;;;;;;19.35;13.05;;;17.10;99.90;;;;;;5065915;28;20055;-54
2024/03/14 10:00:25;;;;;;;18.40;11.77;;;17.50;99.90;;;;;;5063507;28;20078;-47
2024/03/14 10:02:55;;;;;;;16.88;11.55;;;17.70;99.90;;;;;;5064901;28;20032;-47
2024/03/14 10:05:23;;;;;;;17.63;11.80;;;17.90;99.90;;;;;;5068505;28;20397;-47
2024/03/14 10:07:50;;;;;;;17.02;11.75;;;18.00;99.90;;;;;;5070027;28;20123;-49
2024/03/14 10:10:19;;;;;;;17.50;11.20;;;17.90;99.90;;;;;;5066154;28;20040;-46
2024/03/14 10:12:53;;;;;;;14.68;11.15;;;18.30;99.90;;;;;;5065020;28;20431;-52
2024/03/14 10:15:21;;;;;;;14.52;10.50;;;18.20;99.90;;;;;;5067460;28;20041;-48
2024/03/14 10:17:51;;;;;;;15.68;11.20;;;18.40;99.90;;;;;;5065375;28;20054;-46
2024/03/14 10:20:19;;;;;;;15.90;10.13;;;18.60;99.90;;;;;;5061635;28;20613;-45
2024/03/14 10:22:50;;;;;;;16.40;11.73;;;18.50;99.90;;;;;;5061043;28;20771;-44
2024/03/14 10:25:23;;;;;;;14.23;10.77;;;18.60;99.90;;;;;;5062887;28;20186;-50
2024/03/14 10:27:57;;;;;;;13.90;9.80;;;18.70;99.90;;;;;;5065994;28;20045;-53
2024/03/14 10:30:43;;;;;;;17.27;10.93;;;18.70;99.90;;;;;;5066688;28;20185;-49
2024/03/14 10:33:11;;;;;;;12.15;9.55;;;18.50;99.90;;;;;;5066555;28;20131;-51
2024/03/14 10:35:40;;;;;;;11.00;7.82;;;18.20;99.90;;;;;;5066765;28;20132;-47
2024/03/14 10:38:11;;;;;;;13.05;9.02;;;17.80;99.90;;;;;;5064701;28;20101;-49
2024/03/14 10:40:41;;;;;;;16.13;9.15;;;17.90;99.90;;;;;;5068651;28;20509;-46
2024/03/14 10:43:13;;;;;;;18.45;11.43;;;17.90;99.90;;;;;;5065632;28;20047;-54
2024/03/14 10:45:42;;;;;;;23.08;9.88;;;18.20;99.90;;;;;;5067842;28;20087;-47
2024/03/14 10:48:10;;;;;;;20.98;12.70;;;18.10;99.90;;;;;;5068557;28;20075;-47
2024/03/14 10:50:38;;;;;;;15.93;11.73;;;18.20;99.90;;;;;;5064768;28;20106;-49
2024/03/14 10:53:06;;;;;;;15.13;10.52;;;18.50;99.90;;;;;;5068876;28;20045;-44
2024/03/14 10:55:33;;;;;;;17.25;11.75;;;18.30;99.90;;;;;;5069611;28;20075;-42
2024/03/14 10:58:04;;;;;;;13.90;10.88;;;18.30;99.90;;;;;;5063991;28;20071;-46
2024/03/14 11:00:35;;;;;;;14.20;10.05;;;18.40;99.90;;;;;;5068628;28;20044;-48
2024/03/14 11:03:04;;;;;;;18.08;10.40;;;18.40;99.90;;;;;;5066793;28;20122;-45
2024/03/14 11:05:31;;;;;;;15.13;9.90;;;18.70;99.90;;;;;;5066546;28;20041;-50
2024/03/14 11:08:03;;;;;;;12.68;9.32;;;18.70;99.90;;;;;;5059226;28;20468;-51
2024/03/14 11:10:34;;;;;;;13.27;9.77;;;18.60;99.90;;;;;;5065278;28;20037;-45
2024/03/14 11:13:12;;;;;;;16.52;9.95;;;18.20;99.90;;;;;;5063034;28;20064;-49
2024/03/14 11:15:39;;;;;;;15.75;9.13;;;18.30;99.90;;;;;;5065975;28;20532;-44
2024/03/14 11:18:13;;;;;;;10.73;8.75;;;18.50;99.90;;;;;;5070443;28;20499;-49
2024/03/14 11:20:45;;;;;;;15.18;11.85;;;18.60;99.90;;;;;;5067049;28;20045;-51
2024/03/14 11:23:18;;;;;;;11.55;9.10;;;18.70;99.90;;;;;;5066127;28;20070;-48
2024/03/14 11:25:52;;;;;;;9.80;8.40;;;19.00;99.90;;;;;;5069809;28;20205;-48
2024/03/14 11:28:20;;;;;;;14.20;9.15;;;19.10;99.90;;;;;;5064567;28;20114;-43
2024/03/14 11:30:51;;;;;;;13.60;8.32;;;18.70;99.90;;;;;;5069905;28;20521;-46
2024/03/14 11:33:19;;;;;;;10.05;8.63;;;19.00;99.90;;;;;;5068736;28;20132;-47
2024/03/14 11:35:49;;;;;;;8.55;7.60;;;19.10;99.90;;;;;;5069186;28;20059;-47
2024/03/14 11:38:18;;;;;;;13.38;9.15;;;18.90;99.90;;;;;;5070141;28;20124;-47
2024/03/14 11:40:50;;;;;;;10.50;8.73;;;18.60;99.90;;;;;;5071533;28;20059;-49
2024/03/14 11:43:18;;;;;;;12.23;8.73;;;18.20;99.90;;;;;;5066739;28;20120;-52
2024/03/14 11:45:45;;;;;;;15.40;10.50;;;17.70;99.90;;;;;;5064744;28;20064;-46
2024/03/14 11:48:15;;;;;;;14.02;9.10;;;17.90;99.90;;;;;;5072205;28;20533;-46
2024/03/14 11:50:44;;;;;;;11.18;8.77;;;18.10;99.90;;;;;;5069147;28;20493;-49
2024/03/14 11:53:14;;;;;;;9.73;8.27;;;18.20;99.90;;;;;;5065730;28;20071;-45
2024/03/14 11:55:43;;;;;;;10.70;8.03;;;18.10;99.90;;;;;;5070784;28;20056;-47
2024/03/14 11:58:23;;;;;;;;;;;18.20;99.90;;;;;;5067807;28;20052;-50
2024/03/14 12:00:53;;;;;;;9.48;7.80;;;17.90;99.90;;;;;;5062432;28;20409;-48
2024/03/14 12:03:25;;;;;;;11.68;7.53;;;17.90;99.90;;;;;;5069735;28;20037;-46
2024/03/14 12:05:58;;;;;;;10.73;7.55;;;17.80;99.90;;;;;;5069824;28;20044;-47
2024/03/14 12:08:25;;;;;;;8.88;7.90;;;17.60;99.90;;;;;;5063695;28;20040;-44
2024/03/14 12:10:54;;;;;;;8.27;7.10;;;17.70;99.90;;;;;;5068775;28;20515;-51
2024/03/14 12:13:26;;;;;;;8.95;7.22;;;17.60;99.90;;;;;;5068487;28;20049;-49
2024/03/14 12:15:58;;;;;;;10.35;7.25;;;17.70;99.90;;;;;;5065619;28;20052;-51
2024/03/14 12:18:25;;;;;;;7.17;6.23;;;18.00;99.90;;;;;;5070112;28;20082;-49
2024/03/14 12:20:53;;;;;;;8.13;7.32;;;18.30;99.90;;;;;;5066759;28;20120;-50
2024/03/14 12:23:23;;;;;;;10.52;7.22;;;18.30;99.90;;;;;;5072790;28;20049;-49
2024/03/14 12:25:53;;;;;;;8.45;6.70;;;18.60;99.90;;;;;;5067741;28;20068;-47
2024/03/14 12:28:21;;;;;;;9.65;7.70;;;18.80;99.90;;;;;;5069098;28;20132;-46
2024/03/14 12:31:00;;;;;;;7.68;6.13;;;19.20;99.90;;;;;;5067369;28;20036;-48
2024/03/14 12:33:28;;;;;;;11.70;7.70;;;19.80;99.90;;;;;;5063487;28;20036;-46
2024/03/14 12:35:56;;;;;;;7.28;6.50;;;20.20;99.90;;;;;;5068626;28;20048;-51
2024/03/14 12:38:23;;;;;;;10.30;6.97;;;20.90;99.90;;;;;;5063654;28;20051;-47
2024/03/14 12:40:53;;;;;;;6.95;6.28;;;21.50;99.90;;;;;;5071327;28;20056;-49